Time;durP1;ratioP1;P1;durP2;ratioP2;P2;SDS_P1;SDS_P2;PMS_P1;PMS_P2;Temp;Humidity;BMP_temperature;BMP_pressure;BME280_temperature;BME280_humidity;BME280_pressure;Samples;Min_cycle;Max_cycle;Signal;HPM_P1;HPM_P2
2022/08/12 00:43:02;;;;;;;4.28;3.58;;;;;;;19.57;100.00;102200.56;6183521;23;20436;-79
2022/08/12 00:46:29;;;;;;;6.07;3.40;;;;;;;19.54;100.00;102193.44;6181847;23;20896;-78
2022/08/12 00:48:19;;;;;;;4.90;3.75;;;;;;;19.52;100.00;102192.56;6168561;23;20222;-78
2022/08/12 00:50:51;;;;;;;8.48;4.05;;;;;;;19.50;100.00;102191.72;6165759;23;20461;-79
2022/08/12 00:53:20;;;;;;;7.50;4.22;;;;;;;19.47;100.00;102187.31;6183999;23;20213;-79
2022/08/12 00:55:53;;;;;;;5.95;4.38;;;;;;;19.46;100.00;102188.19;6186028;23;20028;-79
2022/08/12 00:58:24;;;;;;;5.53;4.13;;;;;;;19.45;100.00;102189.09;6183899;23;20021;-78
2022/08/12 01:01:06;;;;;;;4.43;3.72;;;;;;;19.46;100.00;102187.31;6179608;23;20021;-80
2022/08/12 01:12:11;;;;;;;5.28;4.00;;;;;;;19.39;100.00;102186.50;6160159;23;20017;-79
2022/08/12 01:14:41;;;;;;;6.28;3.80;;;;;;;19.37;100.00;102190.97;6183307;23;20032;-79
2022/08/12 01:17:09;;;;;;;5.00;4.22;;;;;;;19.36;100.00;102186.53;6146737;23;20135;-79
2022/08/12 01:19:39;;;;;;;7.70;4.30;;;;;;;19.35;100.00;102189.22;6156910;23;20025;-79
2022/08/12 01:22:22;;;;;;;6.20;4.07;;;;;;;19.33;100.00;102186.56;6131457;23;20283;-78
2022/08/12 01:25:05;;;;;;;9.93;4.00;;;;;;;19.32;100.00;102187.50;6184192;23;20024;-78
2022/08/12 01:27:37;;;;;;;5.57;3.83;;;;;;;19.30;100.00;102189.31;6185485;23;20395;-78
2022/08/12 01:30:09;;;;;;;4.00;3.47;;;;;;;19.28;100.00;102183.06;6176799;23;20021;-80
2022/08/12 01:32:39;;;;;;;4.20;3.70;;;;;;;19.27;100.00;102184.84;6185185;23;20025;-79
2022/08/12 01:35:10;;;;;;;7.80;4.28;;;;;;;19.27;100.00;102183.97;6127848;23;20028;-80
2022/08/12 01:37:54;;;;;;;;;;;;;;;19.25;100.00;102183.13;6165222;23;20347;-78
2022/08/12 01:40:28;;;;;;;5.13;3.13;;;;;;;19.23;100.00;102184.94;6185044;23;19916;-78
2022/08/12 01:43:12;;;;;;;6.28;3.58;;;;;;;19.20;100.00;102179.59;6157822;23;20358;-78
2022/08/12 01:45:51;;;;;;;7.93;3.40;;;;;;;19.19;100.00;102183.19;6180450;23;20017;-78
2022/08/12 01:48:45;;;;;;;6.30;4.00;;;;;;;19.18;100.00;102178.75;6182923;23;20211;-78
2022/08/12 01:51:38;;;;;;;6.85;3.58;;;;;;;19.17;100.00;102172.53;6178176;23;20025;-78
2022/08/12 01:54:27;;;;;;;7.57;3.47;;;;;;;19.15;100.00;102179.66;6149841;23;20028;-78
2022/08/12 01:57:23;;;;;;;6.00;3.45;;;;;;;19.13;100.00;102172.56;6183846;23;20024;-79
2022/08/12 02:00:15;;;;;;;5.15;3.20;;;;;;;19.11;100.00;102177.94;6180816;23;20225;-78
2022/08/12 02:02:45;;;;;;;5.13;3.40;;;;;;;19.11;100.00;102177.94;6156125;23;20021;-78
2022/08/12 02:11:30;;;;;;;6.82;3.05;;;;;;;19.06;100.00;102179.78;6148761;23;20025;-78
2022/08/12 02:14:17;;;;;;;4.32;3.03;;;;;;;19.05;100.00;102172.66;6181103;23;20020;-78
2022/08/12 02:17:07;;;;;;;7.00;3.00;;;;;;;19.04;100.00;102182.44;6146085;23;20013;-78
2022/08/12 02:20:03;;;;;;;6.53;3.38;;;;;;;19.02;100.00;102173.56;6186566;23;20024;-79
2022/08/12 02:22:40;;;;;;;3.50;3.20;;;;;;;19.00;100.00;102175.38;6177610;23;20024;-79
2022/08/12 02:25:16;;;;;;;6.72;2.92;;;;;;;19.00;100.00;102177.19;6160072;23;20487;-79
2022/08/12 02:27:48;;;;;;;4.15;3.30;;;;;;;18.99;100.00;102173.59;6186679;23;20032;-79
2022/08/12 02:30:24;;;;;;;4.05;3.70;;;;;;;18.97;100.00;102169.19;6181779;23;20548;-79
2022/08/12 02:33:10;;;;;;;4.35;3.35;;;;;;;18.96;100.00;102179.00;6176462;23;20394;-79
2022/08/12 02:35:38;;;;;;;4.80;3.22;;;;;;;18.95;100.00;102174.53;6184631;23;20021;-78
2022/08/12 02:38:09;;;;;;;3.80;3.45;;;;;;;18.94;100.00;102177.22;6106552;23;20017;-79
2022/08/12 02:40:44;;;;;;;6.45;3.63;;;;;;;18.92;100.00;102174.56;6186340;23;20024;-78
2022/08/12 02:43:37;;;;;;;4.20;3.45;;;;;;;18.91;100.00;102172.81;6170273;23;20225;-81
2022/08/12 02:46:11;;;;;;;4.70;3.65;;;;;;;18.89;100.00;102174.59;6146909;23;20245;-79
2022/08/12 02:48:50;;;;;;;4.55;3.38;;;;;;;18.87;100.00;102165.72;6181902;23;20021;-79
2022/08/12 02:51:27;;;;;;;8.15;3.55;;;;;;;18.87;100.00;102173.75;6157322;23;20036;-79
2022/08/12 02:53:59;;;;;;;3.88;3.50;;;;;;;18.84;100.00;102165.75;6161084;23;20024;-79
2022/08/12 02:56:39;;;;;;;5.15;4.28;;;;;;;18.81;100.00;102164.00;6149820;23;20024;-79
2022/08/12 02:59:11;;;;;;;10.93;3.60;;;;;;;18.81;100.00;102160.44;6180342;23;20148;-80
2022/08/12 03:01:48;;;;;;;5.13;3.58;;;;;;;18.80;100.00;102164.91;6185815;23;20370;-78
2022/08/12 03:04:40;;;;;;;6.18;3.20;;;;;;;18.78;100.00;102163.13;6142158;23;20029;-78
2022/08/12 03:07:19;;;;;;;4.32;3.40;;;;;;;18.77;100.00;102156.91;6179483;23;20048;-78
2022/08/12 03:09:54;;;;;;;8.05;3.28;;;;;;;18.76;100.00;102154.25;6165605;23;20028;-79
2022/08/12 03:12:36;;;;;;;4.00;3.28;;;;;;;18.74;100.00;102154.25;6151824;23;20017;-78
2022/08/12 03:15:19;;;;;;;6.22;3.35;;;;;;;18.73;100.00;102146.25;6182379;23;20302;-78
2022/08/12 03:17:55;;;;;;;6.75;3.60;;;;;;;18.71;100.00;102151.59;6184827;23;20021;-78
2022/08/12 03:20:45;;;;;;;6.60;3.80;;;;;;;18.64;100.00;102140.09;6183980;23;20398;-78
2022/08/12 03:23:14;;;;;;;5.38;3.17;;;;;;;18.60;100.00;102143.72;6155934;23;20556;-78
2022/08/12 03:26:00;;;;;;;3.80;3.50;;;;;;;18.56;100.00;102147.28;6135697;23;20025;-79
2022/08/12 03:28:49;;;;;;;3.08;2.83;;;;;;;18.53;100.00;102144.66;6180412;23;20047;-78
2022/08/12 03:31:31;;;;;;;5.68;3.83;;;;;;;18.50;100.00;102147.34;6156911;23;20032;-78
2022/08/12 03:34:08;;;;;;;6.53;3.55;;;;;;;18.44;100.00;102148.28;6176367;23;20044;-78
2022/08/12 03:36:38;;;;;;;3.08;2.88;;;;;;;18.39;100.00;102152.81;6174388;23;20024;-79
2022/08/12 03:42:20;;;;;;;3.03;2.72;;;;;;;18.37;100.00;102157.25;6162851;23;20017;-80
2022/08/12 04:01:58;;;;;;;7.13;2.55;;;;;;;18.29;100.00;102143.97;6184684;23;20017;-78
2022/08/12 04:04:32;;;;;;;6.40;2.72;;;;;;;18.25;100.00;102136.00;6160414;23;20044;-78
2022/08/12 04:07:07;;;;;;;7.15;2.55;;;;;;;18.21;100.00;102140.47;6144712;23;20013;-79
2022/08/12 04:09:41;;;;;;;6.68;2.70;;;;;;;18.15;100.00;102145.88;6150740;23;20024;-78
2022/08/12 04:15:01;;;;;;;3.03;2.75;;;;;;;18.07;100.00;102147.69;6172435;23;20032;-80
2022/08/12 04:17:31;;;;;;;3.13;2.63;;;;;;;18.04;100.00;102147.75;6162032;23;20025;-79
2022/08/12 04:19:59;;;;;;;2.38;2.17;;;;;;;18.00;100.00;102144.22;6156729;23;20028;-80
2022/08/12 04:22:29;;;;;;;2.50;2.30;;;;;;;17.98;100.00;102150.47;6152690;23;20324;-79
2022/08/12 04:25:01;;;;;;;3.65;2.70;;;;;;;17.96;100.00;102146.88;6149695;23;20032;-78
2022/08/12 04:27:31;;;;;;;2.70;2.47;;;;;;;17.93;100.00;102143.34;6167466;23;20025;-79
2022/08/12 04:30:00;;;;;;;6.88;3.05;;;;;;;17.90;100.00;102146.06;6130012;23;20020;-78
2022/08/12 04:32:50;;;;;;;4.30;2.83;;;;;;;17.88;100.00;102142.53;6185839;23;20328;-79
2022/08/12 04:35:21;;;;;;;5.07;2.78;;;;;;;17.88;100.00;102142.53;6175300;23;20231;-78
2022/08/12 04:37:55;;;;;;;4.90;3.20;;;;;;;17.88;100.00;102137.19;6155828;23;20031;-80
2022/08/12 04:40:31;;;;;;;4.30;3.20;;;;;;;17.90;100.00;102146.06;6126866;23;20025;-78
2022/08/12 04:43:00;;;;;;;4.93;3.60;;;;;;;17.93;100.00;102140.69;6166629;23;20067;-80
2022/08/12 04:45:33;;;;;;;5.22;3.72;;;;;;;17.97;100.00;102141.53;6128951;23;20016;-78
2022/08/12 04:48:02;;;;;;;6.05;3.13;;;;;;;18.03;100.00;102141.50;6157778;23;20021;-81
2022/08/12 04:50:31;;;;;;;4.88;3.15;;;;;;;18.08;100.00;102138.81;6161681;23;20024;-79
2022/08/12 04:53:04;;;;;;;5.82;3.30;;;;;;;18.15;100.00;102135.22;6153708;23;20021;-79
2022/08/12 04:55:33;;;;;;;;;;;;;;;18.44;100.00;102140.28;6186546;23;20017;-78
2022/08/12 04:58:02;;;;;;;4.50;3.17;;;;;;;19.07;100.00;102133.44;6182444;23;19916;-78
2022/08/12 05:00:30;;;;;;;8.90;4.35;;;;;;;19.73;100.00;102124.56;6140818;23;20028;-78
2022/08/12 05:02:59;;;;;;;5.75;3.13;;;;;;;20.21;100.00;102122.06;6157344;23;20035;-79
2022/08/12 05:05:28;;;;;;;7.45;3.33;;;;;;;20.55;100.00;102132.19;6187185;23;20028;-79
2022/08/12 05:08:11;;;;;;;5.55;3.17;;;;;;;20.86;100.00;102131.63;6131859;23;20442;-79
2022/08/12 05:10:39;;;;;;;4.88;2.78;;;;;;;21.17;100.00;102126.56;6185619;23;20013;-78
2022/08/12 05:13:36;;;;;;;3.90;2.67;;;;;;;21.18;100.00;102139.00;6180902;23;20647;-78
2022/08/12 05:16:06;;;;;;;4.53;3.03;;;;;;;21.38;100.00;102127.88;6161494;23;20410;-79
2022/08/12 05:18:38;;;;;;;4.63;2.65;;;;;;;21.92;100.00;102131.16;6181778;23;20024;-78
2022/08/12 05:21:08;;;;;;;9.77;3.20;;;;;;;22.73;100.00;102128.25;6182817;23;20511;-79
2022/08/12 05:23:38;;;;;;;;;;;;;;;23.47;97.93;102128.81;6163029;23;20021;-78
2022/08/12 05:26:07;;;;;;;3.50;2.65;;;;;;;24.05;98.77;102128.81;6202548;23;19920;-78
2022/08/12 05:28:35;;;;;;;7.25;3.05;;;;;;;24.60;95.81;102124.25;6187564;23;20028;-79
2022/08/12 05:31:04;;;;;;;13.50;2.95;;;;;;;24.92;93.47;102130.31;6125743;23;20021;-79
2022/08/12 05:33:39;;;;;;;9.70;2.22;;;;;;;24.76;91.94;102135.34;6162127;23;20324;-80
2022/08/12 05:36:13;;;;;;;4.30;2.88;;;;;;;24.38;89.73;102140.25;6181155;23;20565;-79
2022/08/12 05:39:18;;;;;;;7.00;3.35;;;;;;;23.99;89.08;102132.59;6175594;23;20028;-80
2022/08/12 05:41:38;;;;;;;3.83;2.50;;;;;;;23.68;89.89;102144.28;6163815;23;20025;-79
2022/08/12 05:44:08;;;;;;;8.35;2.88;;;;;;;23.49;89.24;102135.03;6145841;23;20113;-79
2022/08/12 05:46:38;;;;;;;4.10;2.63;;;;;;;23.28;89.81;102153.56;6141939;23;20028;-79
2022/08/12 05:49:07;;;;;;;11.38;3.33;;;;;;;23.43;89.29;102143.31;6147235;23;20028;-79
2022/08/12 05:51:37;;;;;;;5.50;2.38;;;;;;;23.69;88.09;102153.28;6181408;23;20225;-80
2022/08/12 05:54:10;;;;;;;12.05;3.00;;;;;;;23.57;86.67;102151.81;6157058;23;20013;-82
2022/08/12 05:56:40;;;;;;;3.17;2.70;;;;;;;23.39;86.96;102158.66;6180259;23;20017;-80
2022/08/12 05:59:10;;;;;;;3.38;2.55;;;;;;;23.13;87.11;102162.09;6184092;23;20358;-80
2022/08/12 06:01:40;;;;;;;;;;;;;;;22.86;87.77;102156.53;6142124;23;20533;-80
2022/08/12 06:04:29;;;;;;;5.82;2.40;;;;;;;22.68;89.97;102159.72;6181950;23;20118;-80
2022/08/12 06:06:58;;;;;;;3.45;2.72;;;;;;;22.83;90.23;102156.59;6187217;23;20377;-80
2022/08/12 06:09:29;;;;;;;12.73;3.53;;;;;;;22.93;88.90;102149.16;6140911;23;20713;-80
2022/08/12 06:11:57;;;;;;;14.57;2.67;;;;;;;22.92;88.57;102153.66;6181561;23;20040;-81
2022/08/12 06:14:35;;;;;;;11.25;3.20;;;;;;;22.80;88.60;102148.66;6158685;23;20024;-80
2022/08/12 06:17:07;;;;;;;8.57;2.97;;;;;;;22.67;88.65;102157.97;6181462;23;20048;-80
2022/08/12 06:19:35;;;;;;;6.90;3.17;;;;;;;22.50;88.73;102145.84;6118391;23;20021;-81
2022/08/12 06:22:25;;;;;;;7.95;3.10;;;;;;;22.36;89.12;102153.38;6119321;23;20037;-80
2022/08/12 06:24:54;;;;;;;4.72;3.28;;;;;;;22.25;89.89;102147.34;6123757;23;20024;-80
2022/08/12 06:27:22;;;;;;;6.80;3.03;;;;;;;22.10;89.96;102149.53;6097431;23;20018;-80
2022/08/12 06:29:51;;;;;;;5.28;3.40;;;;;;;21.95;90.25;102153.44;6105733;23;20029;-80
2022/08/12 06:32:38;;;;;;;4.07;2.53;;;;;;;21.86;90.94;102148.28;6058958;23;20662;-82
2022/08/12 06:35:27;;;;;;;3.25;2.92;;;;;;;21.83;91.26;102152.84;6098505;23;20229;-82
2022/08/12 06:38:26;;;;;;;5.88;3.05;;;;;;;21.71;91.30;102144.16;6103242;23;20037;-85
2022/08/12 06:43:50;;;;;;;3.25;2.65;;;;;;;21.70;93.50;102139.72;6150105;23;20025;-85
2022/08/12 06:46:38;;;;;;;7.72;3.33;;;;;;;21.78;93.00;102142.25;6129582;23;20387;-85
2022/08/12 06:49:07;;;;;;;7.68;3.25;;;;;;;21.83;91.90;102142.13;6081299;23;20642;-84
2022/08/12 06:51:35;;;;;;;6.80;3.88;;;;;;;21.80;91.21;102143.09;6126219;23;20031;-82
2022/08/12 06:54:04;;;;;;;7.13;3.30;;;;;;;21.77;91.73;102137.78;6188544;23;20021;-83
2022/08/12 06:56:33;;;;;;;3.25;2.97;;;;;;;21.74;91.61;102141.44;6185327;23;20294;-83
2022/08/12 06:59:22;;;;;;;4.68;2.88;;;;;;;21.70;91.46;102145.09;6144523;23;20651;-83
2022/08/12 07:01:50;;;;;;;3.35;2.65;;;;;;;21.71;92.54;102129.88;6191142;23;20024;-82
2022/08/12 07:04:21;;;;;;;4.90;3.45;;;;;;;21.74;92.06;102130.69;6174994;23;20021;-83
2022/08/12 07:07:08;;;;;;;7.00;2.95;;;;;;;21.75;91.96;102129.75;6169327;23;20028;-86
2022/08/12 07:09:39;;;;;;;6.35;3.30;;;;;;;21.78;91.89;102134.19;6188659;23;20116;-85
2022/08/12 07:12:27;;;;;;;4.68;2.80;;;;;;;21.83;92.49;102131.38;6152068;23;20013;-87
2022/08/12 07:14:57;;;;;;;9.80;3.05;;;;;;;21.91;92.30;102126.72;6152149;23;20021;-87
2022/08/12 07:17:30;;;;;;;3.28;2.63;;;;;;;21.98;92.29;102128.34;6151623;23;20017;-88
2022/08/12 07:19:58;;;;;;;3.15;2.85;;;;;;;22.08;92.02;102132.56;6144632;23;20021;-87
2022/08/12 07:22:32;;;;;;;4.05;2.70;;;;;;;22.15;92.21;102127.91;6131441;23;20013;-86
2022/08/12 07:27:54;;;;;;;4.95;2.55;;;;;;;22.38;92.94;102133.63;6131475;23;20028;-88
2022/08/12 07:30:23;;;;;;;5.53;2.83;;;;;;;22.52;92.29;102129.72;6147810;23;20234;-87
2022/08/12 07:32:52;;;;;;;4.60;3.08;;;;;;;22.60;90.39;102133.06;6105967;23;20017;-87
2022/08/12 07:35:31;;;;;;;7.63;2.25;;;;;;;22.69;89.88;102123.88;6141622;23;20210;-87
2022/08/12 07:38:37;;;;;;;6.15;2.50;;;;;;;22.74;89.18;102122.81;6180408;23;20025;-87
2022/08/12 07:41:13;;;;;;;5.70;2.70;;;;;;;22.84;88.86;102122.56;6153811;23;20021;-87
2022/08/12 07:43:57;;;;;;;5.95;2.75;;;;;;;22.89;88.83;102131.38;6154799;23;20028;-87
2022/08/12 07:46:39;;;;;;;5.80;2.90;;;;;;;22.94;88.62;102145.56;6181565;23;20139;-88
2022/08/12 07:49:17;;;;;;;7.70;2.47;;;;;;;22.94;88.23;102138.38;6190850;23;20021;-88
2022/08/12 07:51:45;;;;;;;4.50;2.40;;;;;;;22.99;87.99;102143.66;6145263;23;20017;-88
2022/08/12 07:54:15;;;;;;;3.85;3.00;;;;;;;23.03;87.75;102147.13;6190459;23;20024;-89
2022/08/12 07:56:44;;;;;;;5.15;2.65;;;;;;;23.08;88.09;102146.09;6104731;23;20047;-80
2022/08/12 07:59:12;;;;;;;5.15;2.70;;;;;;;23.15;88.67;102146.78;6150474;23;20032;-80
2022/08/12 08:01:42;;;;;;;6.82;2.65;;;;;;;23.25;87.93;102145.63;6185689;23;20013;-81
2022/08/12 08:06:59;;;;;;;6.20;2.63;;;;;;;23.38;84.32;102147.94;6148791;23;20016;-80
2022/08/12 08:09:27;;;;;;;4.38;2.15;;;;;;;23.43;83.37;102148.69;6157394;23;20383;-80
2022/08/12 08:14:47;;;;;;;7.32;2.70;;;;;;;23.57;82.75;102157.19;6174537;23;20017;-80
2022/08/12 08:17:17;;;;;;;9.65;2.65;;;;;;;23.61;80.46;102152.59;6153998;23;20028;-80
2022/08/12 08:19:51;;;;;;;3.92;1.98;;;;;;;23.61;80.85;102150.81;6162221;23;20477;-80
2022/08/12 08:22:37;;;;;;;6.70;3.05;;;;;;;23.64;79.06;102156.09;6167244;23;20021;-80
2022/08/12 08:25:19;;;;;;;3.95;2.70;;;;;;;23.66;77.88;102151.53;6153746;23;20040;-80
2022/08/12 08:28:16;;;;;;;2.90;2.55;;;;;;;23.70;77.30;102146.94;6155505;23;20481;-81
2022/08/12 08:30:46;;;;;;;4.40;2.40;;;;;;;23.80;76.62;102152.94;6183053;23;20021;-80
2022/08/12 08:33:18;;;;;;;4.60;2.70;;;;;;;23.85;74.71;102143.78;6180231;23;20466;-81
2022/08/12 08:36:10;;;;;;;5.55;1.92;;;;;;;23.97;74.08;102150.63;6145818;23;20025;-81
2022/08/12 08:38:52;;;;;;;5.43;2.60;;;;;;;24.05;72.85;102153.06;6160750;23;20020;-81
2022/08/12 08:44:38;;;;;;;5.15;1.90;;;;;;;24.15;71.11;102154.50;6146050;23;20120;-80
2022/08/12 08:47:08;;;;;;;6.20;2.55;;;;;;;24.19;70.18;102153.47;6150914;23;20020;-80
2022/08/12 08:49:38;;;;;;;2.17;1.95;;;;;;;24.25;69.00;102153.28;6150459;23;20139;-80
2022/08/12 08:52:09;;;;;;;5.93;2.22;;;;;;;24.32;69.25;102145.84;6151926;23;20017;-81
2022/08/12 08:54:39;;;;;;;4.88;2.20;;;;;;;24.43;69.90;102145.50;6171543;23;20048;-81
2022/08/12 08:57:07;;;;;;;8.23;2.40;;;;;;;24.51;68.82;102146.09;6155709;23;20021;-81
2022/08/12 08:59:36;;;;;;;5.00;2.40;;;;;;;24.58;67.83;102144.13;6129219;23;20309;-80
2022/08/12 09:02:04;;;;;;;4.03;2.40;;;;;;;24.62;68.94;102146.63;6159083;23;20028;-80
2022/08/12 09:04:35;;;;;;;9.68;2.38;;;;;;;24.70;69.58;102147.25;6147331;23;20025;-79
2022/08/12 09:07:26;;;;;;;5.57;2.50;;;;;;;24.84;70.10;102153.94;6152052;23;20021;-80
2022/08/12 09:10:18;;;;;;;8.02;2.70;;;;;;;24.89;70.07;102142.06;6131082;23;20021;-82
2022/08/12 09:16:08;;;;;;;7.60;2.42;;;;;;;25.16;73.00;102149.19;6160067;23;20047;-80
2022/08/12 09:18:39;;;;;;;7.95;2.67;;;;;;;25.30;73.00;102144.19;6127517;23;20458;-80
2022/08/12 09:21:09;;;;;;;5.18;2.80;;;;;;;25.40;73.26;102140.19;6128043;23;20021;-80
2022/08/12 09:23:37;;;;;;;7.05;2.53;;;;;;;25.47;73.73;102139.03;6163257;23;20012;-80
2022/08/12 09:26:29;;;;;;;7.88;2.45;;;;;;;25.52;72.51;102144.25;6148881;23;20482;-80
2022/08/12 09:28:58;;;;;;;2.30;2.08;;;;;;;25.53;72.56;102143.31;6163181;23;20021;-80
2022/08/12 09:31:29;;;;;;;6.88;3.15;;;;;;;25.58;72.47;102135.03;6148000;23;20186;-79
2022/08/12 09:34:18;;;;;;;4.87;2.47;;;;;;;25.62;71.80;102137.53;6184323;23;20233;-80
2022/08/12 09:37:00;;;;;;;4.18;2.45;;;;;;;25.70;70.80;102142.63;6182103;23;20248;-80
2022/08/12 09:39:52;;;;;;;7.57;2.70;;;;;;;25.65;71.76;102134.75;6186150;23;20021;-79
2022/08/12 09:45:47;;;;;;;10.40;2.83;;;;;;;25.70;72.13;102133.66;6189410;23;20024;-80
2022/08/12 09:48:36;;;;;;;5.32;3.00;;;;;;;25.74;71.69;102129.91;6188487;23;20017;-79
2022/08/12 09:51:07;;;;;;;6.35;2.35;;;;;;;25.76;73.19;102134.28;6147920;23;20021;-80
2022/08/12 09:53:49;;;;;;;4.75;2.72;;;;;;;25.81;72.82;102129.59;6188940;23;20017;-82
2022/08/12 09:56:39;;;;;;;8.00;3.08;;;;;;;25.83;72.45;102125.00;6150431;23;20032;-80
2022/08/12 09:59:28;;;;;;;9.05;3.08;;;;;;;25.88;74.08;102117.59;6157479;23;20501;-83
2022/08/12 10:02:16;;;;;;;5.47;2.97;;;;;;;25.98;75.41;102118.13;6160587;23;20027;-80
2022/08/12 10:05:07;;;;;;;3.67;3.38;;;;;;;26.03;75.36;102120.63;6164314;23;20032;-80
2022/08/12 10:07:41;;;;;;;3.17;2.85;;;;;;;26.03;75.40;102118.81;6185207;23;20028;-80
2022/08/12 10:10:10;;;;;;;2.73;2.53;;;;;;;26.07;76.76;102122.28;6106626;23;20313;-81
2022/08/12 10:16:03;;;;;;;7.63;3.00;;;;;;;26.15;76.77;102119.25;6176840;23;20028;-81
2022/08/12 10:18:36;;;;;;;5.93;2.88;;;;;;;26.20;76.63;102117.22;6160295;23;20021;-80
2022/08/12 10:21:24;;;;;;;5.25;2.97;;;;;;;26.31;79.78;102117.63;6164418;23;20420;-81
2022/08/12 10:24:22;;;;;;;4.15;2.65;;;;;;;26.41;82.02;102104.63;6179174;23;20005;-81
2022/08/12 10:29:44;;;;;;;6.90;2.90;;;;;;;26.64;79.07;102109.91;6168432;23;20354;-80
2022/08/12 10:32:32;;;;;;;3.47;2.35;;;;;;;26.74;77.92;102099.56;6156906;23;20028;-80
2022/08/12 10:35:15;;;;;;;6.20;2.58;;;;;;;26.80;78.37;102104.69;6184593;23;20013;-80
2022/08/12 10:37:45;;;;;;;6.28;2.33;;;;;;;26.86;76.95;102098.13;6162633;23;20017;-80
2022/08/12 10:43:39;;;;;;;;;;;;;;;26.86;75.06;102094.53;6186618;23;20021;-80
2022/08/12 10:46:23;;;;;;;11.57;2.40;;;;;;;27.05;72.94;102090.03;6158196;23;20233;-81
2022/08/12 10:48:59;;;;;;;4.55;2.10;;;;;;;27.17;73.63;102092.19;6177032;23;20081;-81
2022/08/12 10:51:48;;;;;;;5.32;1.90;;;;;;;27.32;70.07;102079.78;6188412;23;20017;-81
2022/08/12 10:54:37;;;;;;;3.03;1.63;;;;;;;27.45;66.88;102082.78;6152832;23;20027;-81
2022/08/12 10:57:09;;;;;;;3.67;1.70;;;;;;;27.58;64.25;102066.78;6113139;23;20020;-81
2022/08/12 10:59:59;;;;;;;4.57;2.00;;;;;;;27.75;63.87;102069.56;6187213;23;20021;-81
2022/08/12 11:02:53;;;;;;;5.05;1.80;;;;;;;27.91;62.88;102061.56;6158228;23;20025;-80
2022/08/12 11:05:43;;;;;;;6.13;2.20;;;;;;;28.00;63.50;102063.81;6148274;23;20019;-80
2022/08/12 11:08:36;;;;;;;4.90;1.90;;;;;;;28.10;61.49;102053.38;6186486;23;20028;-80
2022/08/12 11:11:16;;;;;;;3.13;2.28;;;;;;;28.24;60.81;102054.47;6146760;23;20120;-80
2022/08/12 11:14:05;;;;;;;5.00;2.03;;;;;;;28.35;60.27;102050.25;6130861;23;20044;-81
2022/08/12 11:16:57;;;;;;;5.40;2.10;;;;;;;28.47;59.64;102046.03;6157008;23;20020;-80
2022/08/12 11:19:45;;;;;;;5.65;2.15;;;;;;;28.55;57.37;102041.09;6188182;23;20017;-80
2022/08/12 11:22:15;;;;;;;3.83;1.65;;;;;;;28.61;57.26;102047.16;6135836;23;20024;-81
2022/08/12 11:24:45;;;;;;;7.60;2.03;;;;;;;28.69;56.63;102040.34;6186664;23;20020;-78
2022/08/12 11:27:19;;;;;;;1.77;1.63;;;;;;;28.74;54.23;102040.97;6161044;23;20020;-79
2022/08/12 11:29:48;;;;;;;6.13;1.98;;;;;;;28.80;54.45;102031.63;6152741;23;20459;-80
2022/08/12 11:32:33;;;;;;;5.85;2.30;;;;;;;28.83;51.00;102031.47;6113310;23;20544;-81
2022/08/12 11:35:07;;;;;;;3.05;1.50;;;;;;;28.91;52.72;102034.59;6136566;23;20450;-79
2022/08/12 11:37:39;;;;;;;6.22;1.77;;;;;;;28.95;55.45;102030.75;6173150;23;20029;-80
2022/08/12 11:40:27;;;;;;;2.88;1.83;;;;;;;28.94;56.35;102030.84;6178426;23;20025;-79
2022/08/12 11:42:59;;;;;;;6.53;1.77;;;;;;;28.95;58.28;102025.34;6111957;23;20032;-79
2022/08/12 11:45:47;;;;;;;3.47;1.63;;;;;;;28.98;59.65;102024.31;6178310;23;20350;-79
2022/08/12 11:48:24;;;;;;;6.07;1.92;;;;;;;28.99;58.36;102022.47;6143013;23;20025;-79
2022/08/12 11:50:54;;;;;;;6.68;2.08;;;;;;;28.94;58.65;102017.28;6188199;23;20020;-79
2022/08/12 11:53:24;;;;;;;2.40;1.83;;;;;;;28.87;59.39;102010.47;6184103;23;20402;-80
2022/08/12 11:56:13;;;;;;;2.67;1.50;;;;;;;28.85;59.94;102009.69;6182370;23;20017;-80
2022/08/12 11:58:41;;;;;;;3.88;1.70;;;;;;;28.84;58.96;102013.34;6145133;23;20025;-80
2022/08/12 12:01:32;;;;;;;2.28;1.50;;;;;;;28.82;58.21;102009.84;6168505;23;20428;-80
2022/08/12 12:04:21;;;;;;;4.53;1.80;;;;;;;28.78;59.98;102003.69;6176270;23;20029;-80
2022/08/12 12:06:57;;;;;;;3.63;1.90;;;;;;;28.85;59.44;102002.41;6147629;23;20234;-81
2022/08/12 12:09:38;;;;;;;2.45;1.60;;;;;;;28.88;59.17;101999.50;6163765;23;20017;-80
2022/08/12 12:12:22;;;;;;;3.47;1.70;;;;;;;28.90;59.70;101999.41;6120509;23;20025;-80
2022/08/12 12:14:50;;;;;;;33.28;7.15;;;;;;;28.94;59.50;102006.41;6169966;23;20358;-80
2022/08/12 12:17:24;;;;;;;4.85;2.10;;;;;;;28.97;61.02;101999.00;6173200;23;20021;-79
2022/08/12 12:19:55;;;;;;;2.78;1.48;;;;;;;29.02;60.46;101998.75;6170885;23;20351;-78
2022/08/12 12:22:23;;;;;;;3.63;1.80;;;;;;;29.04;59.98;102004.09;6190558;23;20028;-79
2022/08/12 12:24:58;;;;;;;2.92;1.58;;;;;;;29.03;58.66;101997.75;6185046;23;20367;-79
2022/08/12 12:27:45;;;;;;;4.72;2.05;;;;;;;29.09;59.89;101994.72;6161644;23;20036;-79
2022/08/12 12:30:34;;;;;;;3.15;1.90;;;;;;;29.19;58.90;101992.38;6171776;23;20021;-79
2022/08/12 12:33:04;;;;;;;5.68;1.98;;;;;;;29.19;58.98;102000.53;6158647;23;20241;-81
2022/08/12 12:35:33;;;;;;;;;;;;;;;29.21;56.39;101987.75;6150140;23;20029;-79
2022/08/12 12:38:22;;;;;;;3.25;1.67;;;;;;;29.23;60.25;101984.94;6190396;23;19938;-79
2022/08/12 12:40:53;;;;;;;5.88;1.90;;;;;;;29.27;59.93;101986.53;6186717;23;20455;-80
2022/08/12 12:43:22;;;;;;;3.70;1.80;;;;;;;29.29;60.47;101981.88;6173808;23;20028;-80
2022/08/12 12:46:10;;;;;;;6.00;2.10;;;;;;;29.33;60.27;101989.72;6168290;23;20028;-78
2022/08/12 12:48:39;;;;;;;2.20;1.60;;;;;;;29.29;60.07;101982.75;6162417;23;20041;-77
2022/08/12 12:51:14;;;;;;;1.98;1.70;;;;;;;29.28;61.99;101967.44;6145087;23;20021;-77
2022/08/12 12:54:03;;;;;;;7.22;1.42;;;;;;;29.31;60.83;101979.94;6185218;23;20017;-78
2022/08/12 12:56:41;;;;;;;6.07;1.90;;;;;;;29.39;61.75;101964.06;6160679;23;20017;-77
2022/08/12 12:59:10;;;;;;;6.32;1.88;;;;;;;29.44;60.10;101967.41;6183606;23;20025;-80
2022/08/12 13:02:06;;;;;;;2.50;1.67;;;;;;;29.44;58.19;101967.41;6125037;23;20016;-79
2022/08/12 13:04:36;;;;;;;3.15;1.60;;;;;;;29.49;58.43;101959.88;6175979;23;20481;-78
2022/08/12 13:07:05;;;;;;;2.30;1.47;;;;;;;29.57;56.46;101956.69;6183429;23;20028;-79
2022/08/12 13:09:34;;;;;;;5.57;1.50;;;;;;;29.62;55.58;101959.13;6147767;23;20260;-78
2022/08/12 13:12:07;;;;;;;2.15;1.95;;;;;;;29.66;55.60;101950.72;6155550;23;20036;-78
2022/08/12 13:14:37;;;;;;;3.25;1.58;;;;;;;29.71;55.92;101947.69;6183178;23;20029;-79
2022/08/12 13:17:10;;;;;;;4.00;1.70;;;;;;;29.78;57.32;101959.13;6142734;23;20128;-78
2022/08/12 13:19:43;;;;;;;4.15;1.52;;;;;;;29.78;55.57;101962.69;6163854;23;20124;-78
2022/08/12 13:22:17;;;;;;;2.60;1.60;;;;;;;29.75;55.95;101962.88;6168065;23;20081;-78
2022/08/12 13:24:53;;;;;;;3.83;1.27;;;;;;;29.78;56.25;101961.84;6182714;23;20025;-79
2022/08/12 13:27:32;;;;;;;4.45;1.45;;;;;;;29.84;56.20;101962.31;6178178;23;20235;-79
2022/08/12 13:30:11;;;;;;;2.30;1.83;;;;;;;29.82;56.70;101960.69;6180086;23;20354;-79
2022/08/12 13:32:44;;;;;;;2.40;1.50;;;;;;;29.77;56.13;101958.22;6171730;23;20256;-78
2022/08/12 13:35:26;;;;;;;4.70;1.60;;;;;;;29.73;56.56;101953.94;6183648;23;20146;-78
2022/08/12 13:38:15;;;;;;;7.93;1.63;;;;;;;29.67;57.09;101952.44;6126748;23;20638;-79
2022/08/12 13:41:02;;;;;;;4.53;1.63;;;;;;;29.68;58.25;101953.31;6176422;23;20024;-80
2022/08/12 13:43:38;;;;;;;6.53;1.90;;;;;;;29.74;58.33;101958.44;6192345;23;20024;-80
2022/08/12 13:46:12;;;;;;;7.38;2.28;;;;;;;29.78;59.39;101949.13;6186692;23;20651;-80
2022/08/12 13:48:42;;;;;;;3.60;1.98;;;;;;;29.78;57.48;101948.25;6174078;23;20419;-79
2022/08/12 13:51:13;;;;;;;2.45;1.25;;;;;;;29.73;58.22;101940.38;6137571;23;20021;-79
2022/08/12 13:53:51;;;;;;;6.88;1.52;;;;;;;29.76;57.68;101940.19;6124762;23;20028;-79
2022/08/12 13:56:32;;;;;;;3.70;1.75;;;;;;;29.76;57.06;101942.91;6180264;23;20009;-79
2022/08/12 13:59:06;;;;;;;6.47;1.67;;;;;;;29.79;56.51;101944.56;6157375;23;20127;-79